createdAt,value
2024-01-22T00:02:08.225Z,28.70
2024-01-22T00:04:36.170Z,28.13
2024-01-22T00:07:04.123Z,26.67
2024-01-22T00:09:33.610Z,26.03
2024-01-22T00:12:01.690Z,26.30
2024-01-22T00:14:29.675Z,25.70
2024-01-22T00:16:57.829Z,25.53
2024-01-22T00:19:26.036Z,24.60
2024-01-22T00:21:54.124Z,24.20
2024-01-22T00:24:22.077Z,23.60
2024-01-22T00:26:51.453Z,23.77
2024-01-22T00:29:19.376Z,24.93
2024-01-22T00:31:47.303Z,24.53
2024-01-22T00:34:15.513Z,24.00
2024-01-22T00:36:43.547Z,24.13
2024-01-22T00:39:11.488Z,24.20
2024-01-22T00:41:39.520Z,24.87
2024-01-22T00:44:08.918Z,23.97
2024-01-22T00:46:37.293Z,24.00
2024-01-22T00:49:05.478Z,24.53
2024-01-22T00:51:35.065Z,24.10
2024-01-22T00:54:03.065Z,23.00
2024-01-22T00:56:31.112Z,23.30
2024-01-22T00:58:59.032Z,23.97
2024-01-22T01:01:28.379Z,23.57
2024-01-22T01:03:57.775Z,25.20
2024-01-22T01:06:25.804Z,24.30
2024-01-22T01:08:54.072Z,24.80
2024-01-22T01:11:22.238Z,24.17
2024-01-22T01:13:50.158Z,24.30
2024-01-22T01:16:18.062Z,24.67
2024-01-22T01:18:47.449Z,25.43
2024-01-22T01:21:15.601Z,25.87
2024-01-22T01:23:43.713Z,27.23
2024-01-22T01:26:11.946Z,26.30
2024-01-22T01:28:39.857Z,27.77
2024-01-22T01:31:07.812Z,28.73
2024-01-22T01:33:36.791Z,28.27
2024-01-22T01:36:06.740Z,27.80
2024-01-22T01:38:34.742Z,29.40
2024-01-22T01:41:03.083Z,27.93
2024-01-22T01:43:30.985Z,28.27
2024-01-22T01:45:58.886Z,29.07
2024-01-22T01:48:27.840Z,28.47
2024-01-22T01:50:58.049Z,28.57
2024-01-22T01:53:29.085Z,28.53
2024-01-22T01:55:57.602Z,26.30
2024-01-22T01:58:25.807Z,26.63
2024-01-22T02:00:58.610Z,27.20
2024-01-22T02:03:26.825Z,28.77
2024-01-22T02:05:55.390Z,25.87
2024-01-22T02:08:23.344Z,26.03
2024-01-22T02:10:52.818Z,25.00
2024-01-22T02:13:20.969Z,24.97
2024-01-22T02:15:48.922Z,24.20
2024-01-22T02:18:17.020Z,23.23
2024-01-22T02:20:45.428Z,24.40
2024-01-22T02:23:14.809Z,24.10
2024-01-22T02:25:42.755Z,24.77
2024-01-22T02:28:10.656Z,25.50
2024-01-22T02:30:38.634Z,24.57
2024-01-22T02:33:07.050Z,24.70
2024-01-22T02:35:35.043Z,25.50
2024-01-22T02:38:03.081Z,26.60
2024-01-22T02:40:32.573Z,28.20
2024-01-22T02:43:00.483Z,28.20
2024-01-22T02:45:28.406Z,28.30
2024-01-22T02:47:56.494Z,29.97
2024-01-22T02:50:24.463Z,30.37
2024-01-22T02:52:52.405Z,30.23
2024-01-22T02:55:21.324Z,29.93
2024-01-22T02:57:51.028Z,29.97
2024-01-22T03:00:19.885Z,29.80
2024-01-22T03:02:48.079Z,27.20
2024-01-22T03:05:16.307Z,28.10
2024-01-22T03:07:44.366Z,28.03
2024-01-22T03:10:12.772Z,27.97
2024-01-22T03:12:42.395Z,27.73
2024-01-22T03:15:12.254Z,28.83
2024-01-22T03:17:40.206Z,27.87
2024-01-22T03:20:09.396Z,28.07
2024-01-22T03:22:37.345Z,28.40
2024-01-22T03:25:05.561Z,24.70
2024-01-22T03:27:33.456Z,26.90
2024-01-22T03:30:02.188Z,27.47
2024-01-22T03:32:31.715Z,27.20
2024-01-22T03:34:59.709Z,28.33
2024-01-22T03:37:27.631Z,29.20
2024-01-22T03:39:55.518Z,30.57
2024-01-22T03:42:23.452Z,32.57
2024-01-22T03:44:51.447Z,33.20
2024-01-22T03:47:19.350Z,30.70
2024-01-22T03:49:48.789Z,33.67
2024-01-22T03:52:16.916Z,35.27
2024-01-22T03:54:44.917Z,36.50
2024-01-22T03:57:13.233Z,38.10
2024-01-22T03:59:41.632Z,36.27
2024-01-22T04:02:09.949Z,35.67
2024-01-22T04:04:37.851Z,34.00
2024-01-22T04:07:07.384Z,32.30
2024-01-22T04:09:35.449Z,31.27
2024-01-22T04:12:05.036Z,29.30
2024-01-22T04:14:33.053Z,30.97
2024-01-22T04:17:00.926Z,29.67
2024-01-22T04:19:28.888Z,29.17
2024-01-22T04:21:56.834Z,29.10
2024-01-22T04:24:26.141Z,30.63
2024-01-22T04:26:54.356Z,28.40
2024-01-22T04:29:22.306Z,28.20
2024-01-22T04:31:50.203Z,26.37
2024-01-22T04:34:18.420Z,27.73
2024-01-22T04:36:46.423Z,29.53
2024-01-22T04:39:14.384Z,28.80
2024-01-22T04:41:43.665Z,28.07
2024-01-22T04:44:11.703Z,27.50
2024-01-22T04:46:39.639Z,29.40
2024-01-22T04:49:09.969Z,30.63
2024-01-22T04:51:38.028Z,27.57
2024-01-22T04:54:06.137Z,28.27
2024-01-22T04:56:34.066Z,29.43
2024-01-22T04:59:03.483Z,27.47
2024-01-22T05:01:32.000Z,30.27
2024-01-22T05:04:00.110Z,30.37
2024-01-22T05:06:28.246Z,30.27
2024-01-22T05:08:56.546Z,32.73
2024-01-22T05:11:25.356Z,34.07
2024-01-22T05:13:54.966Z,27.67
2024-01-22T05:16:24.513Z,27.40
2024-01-22T05:18:53.580Z,26.20
2024-01-22T05:21:23.422Z,25.87
2024-01-22T05:23:51.832Z,26.17
2024-01-22T05:26:20.643Z,25.50
2024-01-22T05:28:48.586Z,26.20
2024-01-22T05:31:16.616Z,24.70
2024-01-22T05:33:46.334Z,23.80
2024-01-22T05:36:14.861Z,21.97
2024-01-22T05:38:43.613Z,23.10
2024-01-22T05:41:11.546Z,22.80
2024-01-22T05:43:39.547Z,22.83
2024-01-22T05:46:07.456Z,22.57
2024-01-22T05:48:35.808Z,21.70
2024-01-22T05:51:05.550Z,21.87
2024-01-22T05:53:33.549Z,22.17
2024-01-22T05:56:01.569Z,20.80
2024-01-22T05:58:29.492Z,21.27
2024-01-22T06:00:57.503Z,22.30
2024-01-22T06:03:25.620Z,23.47
2024-01-22T06:05:53.720Z,23.10
2024-01-22T06:08:23.024Z,23.37
2024-01-22T06:10:52.167Z,22.87
2024-01-22T06:13:20.165Z,22.20
2024-01-22T06:15:48.116Z,21.57
2024-01-22T06:18:16.160Z,23.20
2024-01-22T06:20:44.159Z,22.43
2024-01-22T06:23:12.272Z,21.50
2024-01-22T06:25:41.535Z,21.93
2024-01-22T06:28:09.687Z,22.00
2024-01-22T06:30:37.763Z,22.20
2024-01-22T06:33:06.813Z,21.83
2024-01-22T06:35:34.766Z,22.70
2024-01-22T06:38:02.776Z,22.17
2024-01-22T06:40:31.426Z,22.60
2024-01-22T06:43:00.675Z,23.47
2024-01-22T06:45:28.628Z,23.57
2024-01-22T06:47:56.645Z,24.67
2024-01-22T06:50:25.177Z,24.77
2024-01-22T06:52:53.060Z,23.73
2024-01-22T06:55:20.996Z,24.67
2024-01-22T06:57:49.113Z,23.40
2024-01-22T07:00:20.586Z,24.20
2024-01-22T07:02:50.659Z,23.73
2024-01-22T07:05:19.565Z,23.33
2024-01-22T07:07:47.697Z,22.70
2024-01-22T07:10:15.903Z,22.03
2024-01-22T07:12:43.976Z,22.43
2024-01-22T07:15:14.377Z,22.40
2024-01-22T07:17:46.028Z,20.93
2024-01-22T07:20:15.814Z,22.17
2024-01-22T07:22:48.036Z,23.67
2024-01-22T07:25:22.307Z,23.03
2024-01-22T07:27:50.335Z,23.00
2024-01-22T07:30:18.445Z,22.80
2024-01-22T07:32:49.031Z,21.23
2024-01-22T07:35:18.284Z,22.53
2024-01-22T07:37:47.739Z,22.13
2024-01-22T07:40:16.338Z,21.67
2024-01-22T07:42:44.318Z,21.30
2024-01-22T07:45:13.281Z,22.40
2024-01-22T07:47:41.481Z,23.40
2024-01-22T07:50:14.278Z,29.67
2024-01-22T07:52:44.021Z,27.70
2024-01-22T07:55:18.094Z,28.53
2024-01-22T07:57:46.157Z,30.00
2024-01-22T08:00:15.598Z,27.23
2024-01-22T08:02:43.562Z,31.70
2024-01-22T08:05:14.712Z,32.50
2024-01-22T08:07:43.737Z,34.50
2024-01-22T08:10:11.911Z,35.83
2024-01-22T08:12:39.949Z,38.77
2024-01-22T08:15:08.664Z,35.60
2024-01-22T08:17:37.141Z,33.03
2024-01-22T08:20:07.590Z,36.10
2024-01-22T08:22:36.915Z,35.90
2024-01-22T08:25:05.243Z,36.30
2024-01-22T08:27:33.198Z,38.70
2024-01-22T08:30:01.130Z,38.00
2024-01-22T08:32:29.121Z,37.67
2024-01-22T08:34:57.284Z,41.60
2024-01-22T08:37:25.288Z,41.17
2024-01-22T08:39:54.971Z,43.30
2024-01-22T08:42:22.951Z,45.30
2024-01-22T08:44:50.936Z,46.57
2024-01-22T08:47:19.230Z,47.83
2024-01-22T08:49:47.378Z,50.70
2024-01-22T08:52:15.378Z,53.23
2024-01-22T08:54:43.290Z,53.93
2024-01-22T08:57:12.603Z,57.10
2024-01-22T08:59:40.722Z,56.67
2024-01-22T09:02:08.716Z,57.00
2024-01-22T09:04:36.695Z,57.60
2024-01-22T09:07:04.925Z,59.30
2024-01-22T09:09:32.892Z,53.60
2024-01-22T09:12:00.952Z,53.47
2024-01-22T09:14:30.396Z,51.17
2024-01-22T09:16:58.338Z,46.23
2024-01-22T09:19:27.086Z,43.97
2024-01-22T09:21:55.199Z,38.27
2024-01-22T09:24:23.278Z,33.70
2024-01-22T09:26:51.421Z,34.37
2024-01-22T09:29:19.453Z,35.70
2024-01-22T09:31:49.308Z,35.47
2024-01-22T09:34:17.530Z,37.13
2024-01-22T09:36:45.549Z,37.93
2024-01-22T09:39:13.774Z,38.17
2024-01-22T09:41:42.804Z,40.07
2024-01-22T09:44:11.070Z,37.90
2024-01-22T09:46:39.368Z,36.37
2024-01-22T09:49:08.837Z,35.10
2024-01-22T09:51:37.169Z,35.30
2024-01-22T09:54:08.951Z,35.63
2024-01-22T09:56:39.276Z,36.63
2024-01-22T09:59:17.970Z,41.07
2024-01-22T10:01:47.736Z,41.53
2024-01-22T10:04:18.052Z,43.40
2024-01-22T10:06:47.195Z,45.67
2024-01-22T10:09:16.732Z,48.07
2024-01-22T10:11:44.853Z,47.30
2024-01-22T10:14:13.389Z,44.23
2024-01-22T10:16:41.435Z,40.07
2024-01-22T10:19:10.857Z,40.47
2024-01-22T10:21:40.982Z,41.87
2024-01-22T10:24:10.366Z,40.00
2024-01-22T10:26:40.192Z,36.77
2024-01-22T10:29:17.097Z,38.97
2024-01-22T10:31:56.237Z,43.53
2024-01-22T10:34:25.341Z,49.30
2024-01-22T10:37:08.452Z,53.03
2024-01-22T10:39:36.911Z,52.03
2024-01-22T10:42:12.299Z,50.67
2024-01-22T10:44:42.505Z,54.37
2024-01-22T10:47:10.862Z,47.07
2024-01-22T10:49:39.063Z,52.20
2024-01-22T10:52:08.716Z,44.07
2024-01-22T10:54:37.899Z,45.57
2024-01-22T10:57:07.545Z,43.50
2024-01-22T10:59:39.978Z,44.20
2024-01-22T11:02:09.254Z,48.47
2024-01-22T11:04:43.445Z,43.57
2024-01-22T11:07:13.533Z,42.97
2024-01-22T11:09:42.759Z,40.63
2024-01-22T11:12:11.817Z,38.97
2024-01-22T11:14:40.574Z,34.70
2024-01-22T11:17:10.256Z,34.20
2024-01-22T11:19:38.882Z,33.43
2024-01-22T11:22:10.213Z,31.30
2024-01-22T11:24:39.486Z,27.33
2024-01-22T11:27:08.727Z,25.80
2024-01-22T11:29:37.041Z,25.90
2024-01-22T11:32:35.361Z,25.00
2024-01-22T11:35:10.862Z,23.60
2024-01-22T11:37:46.631Z,23.60
2024-01-22T11:40:17.431Z,23.50
2024-01-22T11:42:46.790Z,22.07
2024-01-22T11:45:16.325Z,22.40
2024-01-22T11:47:46.276Z,22.87
2024-01-22T11:50:16.370Z,21.47
2024-01-22T11:52:45.329Z,21.60
2024-01-22T11:55:14.730Z,20.73
2024-01-22T11:57:44.185Z,20.87
2024-01-22T12:00:20.734Z,21.27
2024-01-22T12:02:51.542Z,20.97
2024-01-22T12:05:21.034Z,21.40
2024-01-22T12:07:51.278Z,20.50
2024-01-22T12:10:22.613Z,19.97
2024-01-22T12:12:51.828Z,20.13
2024-01-22T12:15:20.140Z,19.73
2024-01-22T12:17:48.464Z,20.97
2024-01-22T12:20:17.664Z,21.50
2024-01-22T12:22:45.667Z,20.60
2024-01-22T12:25:14.311Z,20.80
2024-01-22T12:27:44.132Z,21.07
2024-01-22T12:30:14.150Z,20.57
2024-01-22T12:32:54.460Z,20.57
2024-01-22T12:35:24.956Z,20.40
2024-01-22T12:37:57.905Z,20.23
2024-01-22T12:40:26.629Z,20.23
2024-01-22T12:43:03.849Z,19.10
2024-01-22T12:45:31.873Z,19.20
2024-01-22T12:48:00.339Z,18.50
2024-01-22T12:50:30.600Z,18.43
2024-01-22T12:52:58.521Z,18.60
2024-01-22T12:55:27.040Z,18.73
2024-01-22T12:57:56.739Z,19.17
2024-01-22T13:00:25.775Z,19.20
2024-01-22T13:02:53.786Z,18.67
2024-01-22T13:05:22.099Z,19.50
2024-01-22T13:07:50.343Z,19.77
2024-01-22T13:10:18.546Z,19.67
2024-01-22T13:12:46.546Z,19.93
2024-01-22T13:15:16.251Z,19.97
2024-01-22T13:17:44.868Z,19.60
2024-01-22T13:20:14.404Z,19.93
2024-01-22T13:22:42.433Z,19.73
2024-01-22T13:25:10.822Z,20.37
2024-01-22T13:27:39.065Z,20.37
2024-01-22T13:30:08.432Z,19.80
2024-01-22T13:32:37.916Z,20.17
2024-01-22T13:35:07.037Z,20.57
2024-01-22T13:37:35.270Z,19.77
2024-01-22T13:40:03.233Z,19.97
2024-01-22T13:42:31.230Z,20.23
2024-01-22T13:44:59.725Z,20.43
2024-01-22T13:47:37.023Z,20.67
2024-01-22T13:50:08.973Z,20.70
2024-01-22T13:52:37.333Z,20.07
2024-01-22T13:55:06.704Z,20.63
2024-01-22T13:57:34.784Z,20.20
2024-01-22T14:00:02.798Z,20.60
2024-01-22T14:02:31.279Z,19.63
2024-01-22T14:04:59.221Z,20.00
2024-01-22T14:07:28.632Z,20.77
2024-01-22T14:09:56.702Z,21.77
2024-01-22T14:12:25.470Z,21.47
2024-01-22T14:14:54.244Z,21.47
2024-01-22T14:17:22.381Z,21.17
2024-01-22T14:19:50.790Z,21.30
2024-01-22T14:22:21.325Z,21.07
2024-01-22T14:24:50.821Z,21.50
2024-01-22T14:27:20.178Z,21.30
2024-01-22T14:29:48.948Z,21.13
2024-01-22T14:32:17.064Z,21.40
2024-01-22T14:34:45.104Z,21.70
2024-01-22T14:37:14.807Z,21.37
2024-01-22T14:39:44.776Z,20.57
2024-01-22T14:42:14.821Z,20.90
2024-01-22T14:44:42.993Z,21.80
2024-01-22T14:47:11.125Z,21.67
2024-01-22T14:49:40.071Z,20.70
2024-01-22T14:52:08.023Z,20.13
2024-01-22T14:54:35.987Z,19.77
2024-01-22T14:57:03.987Z,20.27
2024-01-22T14:59:36.815Z,20.53
2024-01-22T15:02:05.184Z,20.83
2024-01-22T15:04:33.092Z,20.40
2024-01-22T15:07:01.147Z,20.63
2024-01-22T15:09:29.145Z,20.50
2024-01-22T15:11:57.153Z,20.77
2024-01-22T15:14:27.956Z,20.70
2024-01-22T15:16:58.643Z,21.40
2024-01-22T15:19:26.732Z,21.10
2024-01-22T15:21:54.761Z,21.00
2024-01-22T15:24:22.767Z,21.27
2024-01-22T15:26:50.820Z,21.60
2024-01-22T15:29:18.922Z,20.73
2024-01-22T15:31:50.882Z,21.40
2024-01-22T15:34:20.941Z,22.53
2024-01-22T15:36:49.176Z,22.70
2024-01-22T15:39:21.407Z,22.73
2024-01-22T15:41:49.519Z,22.47
2024-01-22T15:44:17.534Z,23.17
2024-01-22T15:46:45.850Z,23.27
2024-01-22T15:49:14.314Z,23.67
2024-01-22T15:51:43.765Z,23.70
2024-01-22T15:54:11.799Z,24.27
2024-01-22T15:56:39.936Z,24.53
2024-01-22T15:59:09.185Z,25.27
2024-01-22T16:01:37.386Z,25.07
2024-01-22T16:04:05.812Z,24.23
2024-01-22T16:06:34.060Z,23.87
2024-01-22T16:09:06.120Z,24.53
2024-01-22T16:11:36.884Z,25.13
2024-01-22T16:14:05.128Z,25.20
2024-01-22T16:16:33.511Z,25.67
2024-01-22T16:19:02.960Z,25.27
2024-01-22T16:21:35.507Z,25.70
2024-01-22T16:24:05.282Z,27.07
2024-01-22T16:26:33.943Z,25.10
2024-01-22T16:29:02.017Z,24.23
2024-01-22T16:31:29.960Z,25.67
2024-01-22T16:33:58.237Z,26.17
2024-01-22T16:36:26.494Z,25.30
2024-01-22T16:38:54.576Z,26.50
2024-01-22T16:41:23.855Z,26.37
2024-01-22T16:43:51.780Z,26.83
2024-01-22T16:46:19.667Z,26.80
2024-01-22T16:48:47.741Z,25.33
2024-01-22T16:51:15.749Z,25.33
2024-01-22T16:53:43.713Z,25.43
2024-01-22T16:56:13.025Z,24.90
2024-01-22T16:58:42.306Z,24.63
2024-01-22T17:01:10.274Z,25.47
2024-01-22T17:03:38.481Z,26.40
2024-01-22T17:06:06.985Z,27.07
2024-01-22T17:08:34.939Z,27.57
2024-01-22T17:11:02.882Z,27.97
2024-01-22T17:13:33.383Z,28.63
2024-01-22T17:16:05.654Z,28.67
2024-01-22T17:18:35.037Z,27.87
2024-01-22T17:21:03.311Z,27.80
2024-01-22T17:23:33.083Z,27.70
2024-01-22T17:26:02.614Z,25.60
2024-01-22T17:28:30.871Z,26.10
2024-01-22T17:30:59.802Z,25.70
2024-01-22T17:33:29.301Z,26.37
2024-01-22T17:35:57.383Z,25.00
2024-01-22T17:38:26.278Z,24.27
2024-01-22T17:40:54.386Z,25.13
2024-01-22T17:43:22.380Z,25.43
2024-01-22T17:45:50.516Z,24.90
2024-01-22T17:48:18.969Z,24.67
2024-01-22T17:50:49.240Z,25.07
2024-01-22T17:53:17.403Z,25.07
2024-01-22T17:55:45.729Z,26.23
2024-01-22T17:58:13.839Z,26.37
2024-01-22T18:00:45.029Z,27.10
2024-01-22T18:03:13.085Z,27.20
2024-01-22T18:05:41.400Z,27.90
2024-01-22T18:08:11.885Z,27.50
2024-01-22T18:10:39.968Z,29.00
2024-01-22T18:13:07.936Z,29.33
2024-01-22T18:15:35.870Z,29.27
2024-01-22T18:18:04.365Z,29.53
2024-01-22T18:20:32.622Z,30.03
2024-01-22T18:23:00.712Z,29.90
2024-01-22T18:25:30.079Z,29.20
2024-01-22T18:27:58.314Z,30.07
2024-01-22T18:30:26.563Z,30.67
2024-01-22T18:32:54.581Z,31.13
2024-01-22T18:35:22.510Z,32.10
2024-01-22T18:37:50.395Z,31.30
2024-01-22T18:40:18.499Z,30.03
2024-01-22T18:42:47.928Z,30.57
2024-01-22T18:45:15.947Z,31.00
2024-01-22T18:47:44.078Z,32.00
2024-01-22T18:50:12.294Z,33.57
2024-01-22T18:52:40.227Z,32.70
2024-01-22T18:55:08.537Z,30.87
2024-01-22T18:57:36.657Z,32.60
2024-01-22T19:00:07.582Z,31.57
2024-01-22T19:02:35.617Z,32.27
2024-01-22T19:05:03.613Z,32.37
2024-01-22T19:07:33.118Z,33.13
2024-01-22T19:10:01.267Z,34.13
2024-01-22T19:12:29.245Z,31.40
2024-01-22T19:14:57.373Z,33.30
2024-01-22T19:17:26.856Z,33.60
2024-01-22T19:19:54.913Z,33.27
2024-01-22T19:22:22.846Z,32.77
2024-01-22T19:24:50.819Z,32.97
2024-01-22T19:27:19.036Z,33.10
2024-01-22T19:29:47.276Z,33.37
2024-01-22T19:32:15.229Z,33.93
2024-01-22T19:34:44.582Z,33.90
2024-01-22T19:37:12.498Z,33.93
2024-01-22T19:39:40.496Z,34.47
2024-01-22T19:42:08.874Z,35.87
2024-01-22T19:44:37.916Z,34.90
2024-01-22T19:47:06.452Z,35.33
2024-01-22T19:49:34.535Z,36.07
2024-01-22T19:52:04.122Z,35.87
2024-01-22T19:54:32.108Z,37.73
2024-01-22T19:57:00.253Z,34.37
2024-01-22T19:59:28.279Z,35.37
2024-01-22T20:01:56.191Z,35.00
2024-01-22T20:04:24.328Z,35.20
2024-01-22T20:06:52.347Z,34.07
2024-01-22T20:09:21.682Z,34.87
2024-01-22T20:11:49.619Z,34.43
2024-01-22T20:14:17.750Z,33.73
2024-01-22T20:16:45.883Z,34.93
2024-01-22T20:19:14.385Z,34.87
2024-01-22T20:21:43.012Z,37.37
2024-01-22T20:24:13.288Z,37.10
2024-01-22T20:26:43.466Z,36.70
2024-01-22T20:29:12.208Z,38.20
2024-01-22T20:31:40.369Z,37.40
2024-01-22T20:34:08.531Z,37.20
2024-01-22T20:36:39.841Z,35.93
2024-01-22T20:39:07.880Z,36.67
2024-01-22T20:41:35.826Z,36.17
2024-01-22T20:44:05.083Z,38.53
2024-01-22T20:46:33.240Z,37.90
2024-01-22T20:49:01.560Z,39.30
2024-01-22T20:51:30.058Z,42.70
2024-01-22T20:53:58.490Z,45.40
2024-01-22T20:56:26.637Z,44.17
2024-01-22T20:58:54.638Z,46.20
2024-01-22T21:01:24.874Z,49.33
2024-01-22T21:03:53.491Z,51.50
2024-01-22T21:06:21.650Z,51.77
2024-01-22T21:08:49.654Z,54.27
2024-01-22T21:11:17.782Z,54.87
2024-01-22T21:13:45.930Z,53.63
2024-01-22T21:16:13.921Z,51.80
2024-01-22T21:18:44.209Z,50.87
2024-01-22T21:21:12.574Z,50.13
2024-01-22T21:23:41.843Z,50.30
2024-01-22T21:26:14.805Z,50.17
2024-01-22T21:28:44.457Z,50.47
2024-01-22T21:31:13.130Z,50.33
2024-01-22T21:33:41.347Z,47.63
2024-01-22T21:36:11.972Z,47.03
2024-01-22T21:38:39.971Z,45.77
2024-01-22T21:41:07.923Z,48.70
2024-01-22T21:43:35.858Z,47.47
2024-01-22T21:46:03.796Z,46.53
2024-01-22T21:48:31.895Z,46.07
2024-01-22T21:50:59.957Z,47.07
2024-01-22T21:53:29.226Z,45.73
2024-01-22T21:55:57.435Z,46.20
2024-01-22T21:58:25.381Z,46.70
2024-01-22T22:00:53.367Z,47.37
2024-01-22T22:03:24.313Z,46.73
2024-01-22T22:05:52.603Z,47.33
2024-01-22T22:08:20.551Z,46.80
2024-01-22T22:10:52.149Z,48.60
2024-01-22T22:13:20.137Z,48.60
2024-01-22T22:15:48.417Z,46.17
2024-01-22T22:18:16.693Z,46.80
2024-01-22T22:20:45.225Z,45.63
2024-01-22T22:23:17.138Z,47.37
2024-01-22T22:25:45.060Z,47.63
2024-01-22T22:28:14.332Z,46.00
2024-01-22T22:30:42.299Z,47.20
2024-01-22T22:33:10.878Z,46.57
2024-01-22T22:35:39.789Z,45.77
2024-01-22T22:38:07.849Z,46.60
2024-01-22T22:40:35.980Z,48.63
2024-01-22T22:43:04.330Z,48.13
2024-01-22T22:45:34.099Z,49.33
2024-01-22T22:48:02.416Z,47.17
2024-01-22T22:50:30.447Z,46.90
2024-01-22T22:52:58.696Z,46.50
2024-01-22T22:55:26.777Z,45.63
2024-01-22T22:57:55.794Z,45.90
2024-01-22T23:00:24.247Z,42.57
2024-01-22T23:02:55.440Z,41.27
2024-01-22T23:05:24.757Z,41.90
2024-01-22T23:07:52.670Z,39.73
2024-01-22T23:10:20.592Z,40.63
2024-01-22T23:12:49.046Z,40.30
2024-01-22T23:15:18.388Z,40.43
2024-01-22T23:17:46.596Z,39.37
2024-01-22T23:20:16.297Z,41.07
2024-01-22T23:22:44.473Z,39.87
2024-01-22T23:25:13.292Z,36.50
2024-01-22T23:27:41.170Z,36.30
2024-01-22T23:30:10.522Z,36.00
2024-01-22T23:32:40.092Z,33.13
2024-01-22T23:35:09.445Z,31.60
2024-01-22T23:37:38.922Z,30.37
2024-01-22T23:40:07.920Z,29.10
2024-01-22T23:42:35.842Z,28.40
2024-01-22T23:45:05.972Z,28.70
2024-01-22T23:47:34.066Z,28.50
2024-01-22T23:50:02.305Z,28.57
2024-01-22T23:52:30.537Z,28.97
2024-01-22T23:54:59.930Z,28.73
2024-01-22T23:57:27.886Z,29.90
2024-01-22T23:59:56.245Z,32.20
